sensor_id;sensor_type;location;lat;lon;timestamp;P1;durP1;ratioP1;P2;durP2;ratioP2
64022;SDS011;50264;52.088;5.296;2023-04-03T00:01:34;4.0;;;2.0;;
64022;SDS011;50264;52.088;5.296;2023-04-03T00:04:47;2.9;;;1.7;;
64022;SDS011;50264;52.088;5.296;2023-04-03T00:06:24;2.9;;;1.7;;
64022;SDS011;50264;52.088;5.296;2023-04-03T00:08:01;5.5;;;2.31;;
64022;SDS011;50264;52.088;5.296;2023-04-03T00:11:15;2.5;;;1.9;;
64022;SDS011;50264;52.088;5.296;2023-04-03T00:12:51;2.0;;;1.8;;
64022;SDS011;50264;52.088;5.296;2023-04-03T00:14:28;2.0;;;1.8;;
64022;SDS011;50264;52.088;5.296;2023-04-03T00:16:05;2.8;;;1.4;;
64022;SDS011;50264;52.088;5.296;2023-04-03T00:19:19;4.2;;;1.7;;
64022;SDS011;50264;52.088;5.296;2023-04-03T00:20:56;2.1;;;1.6;;
64022;SDS011;50264;52.088;5.296;2023-04-03T00:22:33;3.3;;;1.9;;
64022;SDS011;50264;52.088;5.296;2023-04-03T00:25:46;2.6;;;1.7;;
64022;SDS011;50264;52.088;5.296;2023-04-03T00:27:23;4.1;;;2.0;;
64022;SDS011;50264;52.088;5.296;2023-04-03T00:28:59;3.5;;;1.9;;
64022;SDS011;50264;52.088;5.296;2023-04-03T00:32:12;9.6;;;1.9;;
64022;SDS011;50264;52.088;5.296;2023-04-03T00:33:49;4.8;;;1.9;;
64022;SDS011;50264;52.088;5.296;2023-04-03T00:35:27;2.7;;;1.8;;
64022;SDS011;50264;52.088;5.296;2023-04-03T00:37:04;2.9;;;1.8;;
64022;SDS011;50264;52.088;5.296;2023-04-03T00:40:17;4.3;;;1.7;;
64022;SDS011;50264;52.088;5.296;2023-04-03T00:41:54;3.0;;;1.9;;
64022;SDS011;50264;52.088;5.296;2023-04-03T00:43:30;3.0;;;1.7;;
64022;SDS011;50264;52.088;5.296;2023-04-03T00:47:08;3.4;;;1.9;;
64022;SDS011;50264;52.088;5.296;2023-04-03T00:48:47;2.6;;;1.7;;
64022;SDS011;50264;52.088;5.296;2023-04-03T00:50:24;4.7;;;1.9;;
64022;SDS011;50264;52.088;5.296;2023-04-03T00:52:02;2.4;;;1.8;;
64022;SDS011;50264;52.088;5.296;2023-04-03T00:53:44;3.1;;;1.8;;
64022;SDS011;50264;52.088;5.296;2023-04-03T00:57:01;2.9;;;1.8;;
64022;SDS011;50264;52.088;5.296;2023-04-03T00:58:42;3.0;;;1.7;;
64022;SDS011;50264;52.088;5.296;2023-04-03T01:00:24;3.8;;;1.7;;
64022;SDS011;50264;52.088;5.296;2023-04-03T01:02:02;3.9;;;2.0;;
64022;SDS011;50264;52.088;5.296;2023-04-03T01:05:14;5.8;;;2.5;;
64022;SDS011;50264;52.088;5.296;2023-04-03T01:06:52;3.9;;;2.21;;
64022;SDS011;50264;52.088;5.296;2023-04-03T01:08:31;5.3;;;1.9;;
64022;SDS011;50264;52.088;5.296;2023-04-03T01:11:49;2.9;;;1.7;;
64022;SDS011;50264;52.088;5.296;2023-04-03T01:13:26;2.5;;;1.6;;
64022;SDS011;50264;52.088;5.296;2023-04-03T01:15:06;2.6;;;1.6;;
64022;SDS011;50264;52.088;5.296;2023-04-03T01:16:51;6.7;;;2.0;;
64022;SDS011;50264;52.088;5.296;2023-04-03T01:23:56;4.2;;;1.9;;
64022;SDS011;50264;52.088;5.296;2023-04-03T01:25:44;3.6;;;1.8;;
64022;SDS011;50264;52.088;5.296;2023-04-03T01:27:24;4.0;;;2.0;;
64022;SDS011;50264;52.088;5.296;2023-04-03T01:30:39;2.8;;;1.9;;
64022;SDS011;50264;52.088;5.296;2023-04-03T01:32:22;3.1;;;1.8;;
64022;SDS011;50264;52.088;5.296;2023-04-03T01:33:59;3.0;;;1.8;;
64022;SDS011;50264;52.088;5.296;2023-04-03T01:35:37;1.8;;;1.7;;
64022;SDS011;50264;52.088;5.296;2023-04-03T01:38:50;4.7;;;2.31;;
64022;SDS011;50264;52.088;5.296;2023-04-03T01:40:27;3.2;;;1.8;;
64022;SDS011;50264;52.088;5.296;2023-04-03T01:42:04;3.0;;;1.8;;
64022;SDS011;50264;52.088;5.296;2023-04-03T01:45:18;3.3;;;1.9;;
64022;SDS011;50264;52.088;5.296;2023-04-03T01:46:54;2.9;;;2.0;;
64022;SDS011;50264;52.088;5.296;2023-04-03T01:48:32;3.5;;;2.0;;
64022;SDS011;50264;52.088;5.296;2023-04-03T01:50:08;2.8;;;1.7;;
64022;SDS011;50264;52.088;5.296;2023-04-03T01:53:21;3.0;;;1.7;;
64022;SDS011;50264;52.088;5.296;2023-04-03T01:54:58;3.5;;;2.21;;
64022;SDS011;50264;52.088;5.296;2023-04-03T01:56:34;3.2;;;1.7;;
64022;SDS011;50264;52.088;5.296;2023-04-03T01:59:46;5.2;;;2.1;;
64022;SDS011;50264;52.088;5.296;2023-04-03T02:01:23;2.31;;;1.6;;
64022;SDS011;50264;52.088;5.296;2023-04-03T02:03:01;5.2;;;2.0;;
64022;SDS011;50264;52.088;5.296;2023-04-03T02:06:15;8.5;;;1.8;;
64022;SDS011;50264;52.088;5.296;2023-04-03T02:07:51;2.9;;;1.7;;
64022;SDS011;50264;52.088;5.296;2023-04-03T02:09:27;2.0;;;1.8;;
64022;SDS011;50264;52.088;5.296;2023-04-03T02:11:03;2.7;;;1.9;;
64022;SDS011;50264;52.088;5.296;2023-04-03T02:14:16;5.11;;;2.4;;
64022;SDS011;50264;52.088;5.296;2023-04-03T02:15:52;2.9;;;1.6;;
64022;SDS011;50264;52.088;5.296;2023-04-03T02:17:28;6.2;;;2.0;;
64022;SDS011;50264;52.088;5.296;2023-04-03T02:20:41;2.7;;;1.8;;
64022;SDS011;50264;52.088;5.296;2023-04-03T02:22:17;6.1;;;1.9;;
64022;SDS011;50264;52.088;5.296;2023-04-03T02:23:53;3.5;;;2.1;;
64022;SDS011;50264;52.088;5.296;2023-04-03T02:27:07;3.2;;;2.31;;
64022;SDS011;50264;52.088;5.296;2023-04-03T02:28:44;4.3;;;2.0;;
64022;SDS011;50264;52.088;5.296;2023-04-03T02:30:20;2.4;;;1.8;;
64022;SDS011;50264;52.088;5.296;2023-04-03T02:33:32;2.7;;;1.8;;
64022;SDS011;50264;52.088;5.296;2023-04-03T02:35:10;6.1;;;2.4;;
64022;SDS011;50264;52.088;5.296;2023-04-03T02:36:47;4.5;;;2.31;;
64022;SDS011;50264;52.088;5.296;2023-04-03T02:38:23;3.4;;;1.7;;
64022;SDS011;50264;52.088;5.296;2023-04-03T02:41:36;2.7;;;2.0;;
64022;SDS011;50264;52.088;5.296;2023-04-03T02:43:12;4.1;;;2.1;;
64022;SDS011;50264;52.088;5.296;2023-04-03T02:44:49;2.9;;;2.0;;
64022;SDS011;50264;52.088;5.296;2023-04-03T02:48:01;4.3;;;2.21;;
64022;SDS011;50264;52.088;5.296;2023-04-03T02:49:37;4.0;;;1.9;;
64022;SDS011;50264;52.088;5.296;2023-04-03T02:51:13;3.9;;;2.0;;
64022;SDS011;50264;52.088;5.296;2023-04-03T02:54:26;4.2;;;1.9;;
64022;SDS011;50264;52.088;5.296;2023-04-03T02:56:02;4.61;;;2.4;;
64022;SDS011;50264;52.088;5.296;2023-04-03T02:57:38;3.3;;;2.1;;
64022;SDS011;50264;52.088;5.296;2023-04-03T02:59:15;3.8;;;2.21;;
64022;SDS011;50264;52.088;5.296;2023-04-03T03:02:28;3.1;;;1.8;;
64022;SDS011;50264;52.088;5.296;2023-04-03T03:04:04;3.4;;;2.1;;
64022;SDS011;50264;52.088;5.296;2023-04-03T03:05:40;8.0;;;2.5;;
64022;SDS011;50264;52.088;5.296;2023-04-03T03:08:53;4.7;;;2.1;;
64022;SDS011;50264;52.088;5.296;2023-04-03T03:10:29;3.3;;;2.31;;
64022;SDS011;50264;52.088;5.296;2023-04-03T03:12:05;3.2;;;2.4;;
64022;SDS011;50264;52.088;5.296;2023-04-03T03:15:17;5.3;;;2.5;;
64022;SDS011;50264;52.088;5.296;2023-04-03T03:16:54;3.6;;;2.0;;
64022;SDS011;50264;52.088;5.296;2023-04-03T03:18:30;4.2;;;2.31;;
64022;SDS011;50264;52.088;5.296;2023-04-03T03:20:07;8.5;;;2.31;;
64022;SDS011;50264;52.088;5.296;2023-04-03T03:23:20;5.3;;;2.1;;
64022;SDS011;50264;52.088;5.296;2023-04-03T03:25:00;4.2;;;2.6;;
64022;SDS011;50264;52.088;5.296;2023-04-03T03:26:37;6.5;;;2.21;;
64022;SDS011;50264;52.088;5.296;2023-04-03T03:29:49;5.6;;;2.7;;
64022;SDS011;50264;52.088;5.296;2023-04-03T03:31:25;6.7;;;2.7;;
64022;SDS011;50264;52.088;5.296;2023-04-03T03:33:02;5.5;;;2.21;;
64022;SDS011;50264;52.088;5.296;2023-04-03T03:36:15;8.9;;;2.7;;
64022;SDS011;50264;52.088;5.296;2023-04-03T03:37:51;3.9;;;2.6;;
64022;SDS011;50264;52.088;5.296;2023-04-03T03:39:27;4.8;;;2.9;;
64022;SDS011;50264;52.088;5.296;2023-04-03T03:41:04;3.0;;;2.5;;
64022;SDS011;50264;52.088;5.296;2023-04-03T03:44:16;7.5;;;2.8;;
64022;SDS011;50264;52.088;5.296;2023-04-03T03:45:52;4.5;;;2.5;;
64022;SDS011;50264;52.088;5.296;2023-04-03T03:47:29;4.41;;;2.21;;
64022;SDS011;50264;52.088;5.296;2023-04-03T03:50:42;5.11;;;2.9;;
64022;SDS011;50264;52.088;5.296;2023-04-03T03:52:18;4.1;;;2.5;;
64022;SDS011;50264;52.088;5.296;2023-04-03T03:53:54;5.2;;;2.9;;
64022;SDS011;50264;52.088;5.296;2023-04-03T03:57:07;7.4;;;2.7;;
64022;SDS011;50264;52.088;5.296;2023-04-03T03:58:44;4.0;;;2.9;;
64022;SDS011;50264;52.088;5.296;2023-04-03T04:00:20;5.6;;;2.7;;
64022;SDS011;50264;52.088;5.296;2023-04-03T04:01:56;5.9;;;2.7;;
64022;SDS011;50264;52.088;5.296;2023-04-03T04:05:09;5.8;;;2.4;;
64022;SDS011;50264;52.088;5.296;2023-04-03T04:06:45;7.8;;;2.6;;
64022;SDS011;50264;52.088;5.296;2023-04-03T04:08:21;7.8;;;2.6;;
64022;SDS011;50264;52.088;5.296;2023-04-03T04:11:34;5.6;;;2.8;;
64022;SDS011;50264;52.088;5.296;2023-04-03T04:13:10;4.91;;;2.6;;
64022;SDS011;50264;52.088;5.296;2023-04-03T04:14:46;3.7;;;2.5;;
64022;SDS011;50264;52.088;5.296;2023-04-03T04:17:58;4.3;;;2.4;;
64022;SDS011;50264;52.088;5.296;2023-04-03T04:19:35;6.6;;;2.7;;
64022;SDS011;50264;52.088;5.296;2023-04-03T04:21:11;4.61;;;2.7;;
64022;SDS011;50264;52.088;5.296;2023-04-03T04:24:23;4.3;;;3.0;;
64022;SDS011;50264;52.088;5.296;2023-04-03T04:25:59;4.0;;;2.9;;
64022;SDS011;50264;52.088;5.296;2023-04-03T04:27:37;6.2;;;2.8;;
64022;SDS011;50264;52.088;5.296;2023-04-03T04:29:13;6.2;;;2.8;;
64022;SDS011;50264;52.088;5.296;2023-04-03T04:32:25;6.0;;;3.0;;
64022;SDS011;50264;52.088;5.296;2023-04-03T04:34:02;4.2;;;2.8;;
64022;SDS011;50264;52.088;5.296;2023-04-03T04:35:38;8.5;;;3.2;;
64022;SDS011;50264;52.088;5.296;2023-04-03T04:38:50;5.8;;;3.2;;
64022;SDS011;50264;52.088;5.296;2023-04-03T04:40:27;8.5;;;3.0;;
64022;SDS011;50264;52.088;5.296;2023-04-03T04:42:03;6.9;;;3.3;;
64022;SDS011;50264;52.088;5.296;2023-04-03T04:45:16;5.8;;;2.7;;
64022;SDS011;50264;52.088;5.296;2023-04-03T04:46:52;9.6;;;3.3;;
64022;SDS011;50264;52.088;5.296;2023-04-03T04:48:28;5.9;;;3.8;;
64022;SDS011;50264;52.088;5.296;2023-04-03T04:50:05;6.7;;;3.1;;
64022;SDS011;50264;52.088;5.296;2023-04-03T04:53:18;7.8;;;3.0;;
64022;SDS011;50264;52.088;5.296;2023-04-03T04:54:54;7.9;;;3.3;;
64022;SDS011;50264;52.088;5.296;2023-04-03T04:56:30;7.9;;;3.2;;
64022;SDS011;50264;52.088;5.296;2023-04-03T04:59:43;5.6;;;3.3;;
64022;SDS011;50264;52.088;5.296;2023-04-03T05:01:19;5.3;;;3.2;;
64022;SDS011;50264;52.088;5.296;2023-04-03T05:02:55;3.6;;;2.7;;
64022;SDS011;50264;52.088;5.296;2023-04-03T05:06:08;5.8;;;3.3;;
64022;SDS011;50264;52.088;5.296;2023-04-03T05:07:44;7.8;;;3.0;;
64022;SDS011;50264;52.088;5.296;2023-04-03T05:09:20;5.7;;;3.2;;
64022;SDS011;50264;52.088;5.296;2023-04-03T05:10:56;4.41;;;3.1;;
64022;SDS011;50264;52.088;5.296;2023-04-03T05:14:09;4.5;;;2.8;;
64022;SDS011;50264;52.088;5.296;2023-04-03T05:15:45;5.7;;;3.3;;
64022;SDS011;50264;52.088;5.296;2023-04-03T05:17:22;6.9;;;3.0;;
64022;SDS011;50264;52.088;5.296;2023-04-03T05:20:34;7.6;;;3.4;;
64022;SDS011;50264;52.088;5.296;2023-04-03T05:22:11;7.4;;;3.1;;
64022;SDS011;50264;52.088;5.296;2023-04-03T05:23:47;5.5;;;3.3;;
64022;SDS011;50264;52.088;5.296;2023-04-03T05:26:59;5.4;;;3.3;;
64022;SDS011;50264;52.088;5.296;2023-04-03T05:28:35;5.2;;;3.1;;
64022;SDS011;50264;52.088;5.296;2023-04-03T05:30:12;8.1;;;2.8;;
64022;SDS011;50264;52.088;5.296;2023-04-03T05:33:26;7.8;;;3.4;;
64022;SDS011;50264;52.088;5.296;2023-04-03T05:35:02;5.3;;;3.0;;
64022;SDS011;50264;52.088;5.296;2023-04-03T05:36:39;6.2;;;3.1;;
64022;SDS011;50264;52.088;5.296;2023-04-03T05:38:16;6.6;;;3.6;;
64022;SDS011;50264;52.088;5.296;2023-04-03T05:41:28;7.7;;;4.1;;
64022;SDS011;50264;52.088;5.296;2023-04-03T05:43:04;6.2;;;3.2;;
64022;SDS011;50264;52.088;5.296;2023-04-03T05:44:40;6.7;;;3.2;;
64022;SDS011;50264;52.088;5.296;2023-04-03T05:47:55;6.2;;;3.5;;
64022;SDS011;50264;52.088;5.296;2023-04-03T05:49:31;6.0;;;3.1;;
64022;SDS011;50264;52.088;5.296;2023-04-03T05:51:09;5.4;;;3.1;;
64022;SDS011;50264;52.088;5.296;2023-04-03T05:52:50;5.7;;;3.2;;
64022;SDS011;50264;52.088;5.296;2023-04-03T05:56:07;6.4;;;3.5;;
64022;SDS011;50264;52.088;5.296;2023-04-03T05:57:43;5.11;;;3.1;;
64022;SDS011;50264;52.088;5.296;2023-04-03T05:59:19;6.4;;;3.5;;
64022;SDS011;50264;52.088;5.296;2023-04-03T06:02:33;10.1;;;3.5;;
64022;SDS011;50264;52.088;5.296;2023-04-03T06:04:09;8.31;;;3.4;;
64022;SDS011;50264;52.088;5.296;2023-04-03T06:05:46;11.2;;;3.6;;
64022;SDS011;50264;52.088;5.296;2023-04-03T06:09:00;9.1;;;3.9;;
64022;SDS011;50264;52.088;5.296;2023-04-03T06:10:36;4.3;;;3.2;;
64022;SDS011;50264;52.088;5.296;2023-04-03T06:12:13;8.81;;;3.6;;
64022;SDS011;50264;52.088;5.296;2023-04-03T06:13:49;5.2;;;3.2;;
64022;SDS011;50264;52.088;5.296;2023-04-03T06:17:02;5.3;;;3.1;;
64022;SDS011;50264;52.088;5.296;2023-04-03T06:18:39;6.3;;;3.7;;
64022;SDS011;50264;52.088;5.296;2023-04-03T06:25:13;5.8;;;3.2;;
64022;SDS011;50264;52.088;5.296;2023-04-03T06:26:49;7.7;;;3.6;;
64022;SDS011;50264;52.088;5.296;2023-04-03T06:28:26;4.7;;;3.2;;
64022;SDS011;50264;52.088;5.296;2023-04-03T06:31:38;8.6;;;3.5;;
64022;SDS011;50264;52.088;5.296;2023-04-03T06:33:14;10.7;;;3.7;;
64022;SDS011;50264;52.088;5.296;2023-04-03T06:34:50;8.31;;;3.8;;
64022;SDS011;50264;52.088;5.296;2023-04-03T06:38:02;8.1;;;3.7;;
64022;SDS011;50264;52.088;5.296;2023-04-03T06:39:38;9.21;;;3.9;;
64022;SDS011;50264;52.088;5.296;2023-04-03T06:41:15;6.3;;;3.1;;
64022;SDS011;50264;52.088;5.296;2023-04-03T06:44:28;6.6;;;3.4;;
64022;SDS011;50264;52.088;5.296;2023-04-03T06:46:04;4.7;;;2.8;;
64022;SDS011;50264;52.088;5.296;2023-04-03T06:47:40;7.4;;;3.5;;
64022;SDS011;50264;52.088;5.296;2023-04-03T06:49:16;9.81;;;3.3;;
64022;SDS011;50264;52.088;5.296;2023-04-03T06:52:29;9.9;;;3.3;;
64022;SDS011;50264;52.088;5.296;2023-04-03T06:54:05;6.3;;;3.2;;
64022;SDS011;50264;52.088;5.296;2023-04-03T06:55:42;8.1;;;2.7;;
64022;SDS011;50264;52.088;5.296;2023-04-03T06:58:54;13.1;;;3.5;;
64022;SDS011;50264;52.088;5.296;2023-04-03T07:00:31;6.3;;;2.9;;
64022;SDS011;50264;52.088;5.296;2023-04-03T07:02:08;5.6;;;3.1;;
64022;SDS011;50264;52.088;5.296;2023-04-03T07:05:24;7.1;;;3.1;;
64022;SDS011;50264;52.088;5.296;2023-04-03T07:07:01;7.0;;;3.0;;
64022;SDS011;50264;52.088;5.296;2023-04-03T07:08:37;11.0;;;3.1;;
64022;SDS011;50264;52.088;5.296;2023-04-03T07:10:14;7.1;;;3.0;;
64022;SDS011;50264;52.088;5.296;2023-04-03T07:13:27;6.6;;;2.7;;
64022;SDS011;50264;52.088;5.296;2023-04-03T07:15:03;5.4;;;2.7;;
64022;SDS011;50264;52.088;5.296;2023-04-03T07:16:40;7.1;;;3.1;;
64022;SDS011;50264;52.088;5.296;2023-04-03T07:19:52;9.5;;;3.1;;
64022;SDS011;50264;52.088;5.296;2023-04-03T07:21:29;5.6;;;2.9;;
64022;SDS011;50264;52.088;5.296;2023-04-03T07:23:05;6.5;;;2.7;;
64022;SDS011;50264;52.088;5.296;2023-04-03T07:26:18;7.7;;;3.0;;
64022;SDS011;50264;52.088;5.296;2023-04-03T07:27:55;8.81;;;3.2;;
64022;SDS011;50264;52.088;5.296;2023-04-03T07:29:31;5.5;;;3.0;;
64022;SDS011;50264;52.088;5.296;2023-04-03T07:31:08;6.2;;;3.0;;
64022;SDS011;50264;52.088;5.296;2023-04-03T07:34:23;6.6;;;2.8;;
64022;SDS011;50264;52.088;5.296;2023-04-03T07:35:59;9.9;;;3.2;;
64022;SDS011;50264;52.088;5.296;2023-04-03T07:37:36;6.6;;;2.5;;
64022;SDS011;50264;52.088;5.296;2023-04-03T07:40:49;5.11;;;2.7;;
64022;SDS011;50264;52.088;5.296;2023-04-03T07:42:26;9.1;;;2.5;;
64022;SDS011;50264;52.088;5.296;2023-04-03T07:44:02;5.2;;;2.5;;
64022;SDS011;50264;52.088;5.296;2023-04-03T07:47:18;7.1;;;2.6;;
64022;SDS011;50264;52.088;5.296;2023-04-03T07:48:54;6.0;;;2.8;;
64022;SDS011;50264;52.088;5.296;2023-04-03T07:50:30;6.9;;;2.7;;
64022;SDS011;50264;52.088;5.296;2023-04-03T07:52:06;6.0;;;2.6;;
64022;SDS011;50264;52.088;5.296;2023-04-03T07:55:19;4.2;;;2.1;;
64022;SDS011;50264;52.088;5.296;2023-04-03T07:56:55;5.0;;;2.6;;
64022;SDS011;50264;52.088;5.296;2023-04-03T07:58:31;5.5;;;2.6;;
64022;SDS011;50264;52.088;5.296;2023-04-03T08:01:44;7.0;;;2.5;;
64022;SDS011;50264;52.088;5.296;2023-04-03T08:03:20;5.11;;;2.8;;
64022;SDS011;50264;52.088;5.296;2023-04-03T08:04:56;6.3;;;2.6;;
64022;SDS011;50264;52.088;5.296;2023-04-03T08:08:09;4.8;;;2.31;;
64022;SDS011;50264;52.088;5.296;2023-04-03T08:09:47;5.4;;;2.31;;
64022;SDS011;50264;52.088;5.296;2023-04-03T08:11:23;4.3;;;2.0;;
64022;SDS011;50264;52.088;5.296;2023-04-03T08:12:59;4.41;;;2.4;;
64022;SDS011;50264;52.088;5.296;2023-04-03T08:16:14;4.41;;;2.4;;
64022;SDS011;50264;52.088;5.296;2023-04-03T08:17:54;5.0;;;2.7;;
64022;SDS011;50264;52.088;5.296;2023-04-03T08:19:30;5.2;;;2.1;;
64022;SDS011;50264;52.088;5.296;2023-04-03T08:22:44;4.41;;;1.9;;
64022;SDS011;50264;52.088;5.296;2023-04-03T08:24:20;5.3;;;2.5;;
64022;SDS011;50264;52.088;5.296;2023-04-03T08:25:56;6.1;;;2.31;;
64022;SDS011;50264;52.088;5.296;2023-04-03T08:29:09;6.4;;;2.5;;
64022;SDS011;50264;52.088;5.296;2023-04-03T08:30:45;5.11;;;2.21;;
64022;SDS011;50264;52.088;5.296;2023-04-03T08:32:22;5.11;;;2.21;;
64022;SDS011;50264;52.088;5.296;2023-04-03T08:33:58;5.9;;;2.31;;
64022;SDS011;50264;52.088;5.296;2023-04-03T08:37:14;11.7;;;1.9;;
64022;SDS011;50264;52.088;5.296;2023-04-03T08:38:50;5.11;;;2.31;;
64022;SDS011;50264;52.088;5.296;2023-04-03T08:40:28;5.9;;;2.0;;
64022;SDS011;50264;52.088;5.296;2023-04-03T08:43:55;4.2;;;2.0;;
64022;SDS011;50264;52.088;5.296;2023-04-03T08:45:42;4.0;;;1.9;;
64022;SDS011;50264;52.088;5.296;2023-04-03T08:47:23;3.4;;;1.6;;
64022;SDS011;50264;52.088;5.296;2023-04-03T08:49:04;6.7;;;1.8;;
64022;SDS011;50264;52.088;5.296;2023-04-03T08:50:50;4.1;;;2.0;;
64022;SDS011;50264;52.088;5.296;2023-04-03T08:54:14;3.0;;;1.7;;
64022;SDS011;50264;52.088;5.296;2023-04-03T08:56:00;3.7;;;1.7;;
64022;SDS011;50264;52.088;5.296;2023-04-03T08:57:44;4.0;;;1.7;;
64022;SDS011;50264;52.088;5.296;2023-04-03T08:59:24;3.4;;;1.3;;
64022;SDS011;50264;52.088;5.296;2023-04-03T09:01:05;6.3;;;1.6;;
64022;SDS011;50264;52.088;5.296;2023-04-03T09:04:31;4.8;;;1.7;;
64022;SDS011;50264;52.088;5.296;2023-04-03T09:06:11;4.2;;;1.6;;
64022;SDS011;50264;52.088;5.296;2023-04-03T09:07:52;4.8;;;1.7;;
64022;SDS011;50264;52.088;5.296;2023-04-03T09:09:36;2.8;;;1.4;;
64022;SDS011;50264;52.088;5.296;2023-04-03T09:13:01;3.5;;;1.6;;
64022;SDS011;50264;52.088;5.296;2023-04-03T09:14:46;2.0;;;1.11;;
64022;SDS011;50264;52.088;5.296;2023-04-03T09:16:35;6.1;;;1.4;;
64022;SDS011;50264;52.088;5.296;2023-04-03T09:18:24;2.7;;;1.2;;
64022;SDS011;50264;52.088;5.296;2023-04-03T09:20:11;1.9;;;1.2;;
64022;SDS011;50264;52.088;5.296;2023-04-03T09:23:33;3.7;;;1.3;;
64022;SDS011;50264;52.088;5.296;2023-04-03T09:25:18;2.9;;;1.3;;
64022;SDS011;50264;52.088;5.296;2023-04-03T09:26:57;4.91;;;1.2;;
64022;SDS011;50264;52.088;5.296;2023-04-03T09:28:39;3.2;;;1.2;;
64022;SDS011;50264;52.088;5.296;2023-04-03T09:31:58;4.1;;;1.4;;
64022;SDS011;50264;52.088;5.296;2023-04-03T09:33:36;1.8;;;1.11;;
64022;SDS011;50264;52.088;5.296;2023-04-03T09:35:17;2.8;;;1.11;;
64022;SDS011;50264;52.088;5.296;2023-04-03T09:36:57;1.9;;;1.0;;
64022;SDS011;50264;52.088;5.296;2023-04-03T09:40:44;3.9;;;1.2;;
64022;SDS011;50264;52.088;5.296;2023-04-03T09:42:22;1.7;;;1.0;;
64022;SDS011;50264;52.088;5.296;2023-04-03T09:43:59;3.3;;;1.4;;
64022;SDS011;50264;52.088;5.296;2023-04-03T09:45:35;0.9;;;0.8;;
64022;SDS011;50264;52.088;5.296;2023-04-03T09:47:17;2.31;;;1.11;;
64022;SDS011;50264;52.088;5.296;2023-04-03T09:50:52;3.5;;;1.11;;
64022;SDS011;50264;52.088;5.296;2023-04-03T09:52:33;1.8;;;0.9;;
64022;SDS011;50264;52.088;5.296;2023-04-03T09:54:31;0.9;;;0.7;;
64022;SDS011;50264;52.088;5.296;2023-04-03T09:56:18;1.3;;;0.7;;
64022;SDS011;50264;52.088;5.296;2023-04-03T09:57:59;1.4;;;0.7;;
64022;SDS011;50264;52.088;5.296;2023-04-03T10:01:23;2.1;;;1.11;;
64022;SDS011;50264;52.088;5.296;2023-04-03T10:03:03;1.8;;;0.8;;
64022;SDS011;50264;52.088;5.296;2023-04-03T10:04:41;1.3;;;1.0;;
64022;SDS011;50264;52.088;5.296;2023-04-03T10:06:21;5.4;;;1.0;;
64022;SDS011;50264;52.088;5.296;2023-04-03T10:09:59;2.9;;;1.0;;
64022;SDS011;50264;52.088;5.296;2023-04-03T10:11:38;1.6;;;0.8;;
64022;SDS011;50264;52.088;5.296;2023-04-03T10:13:33;1.4;;;0.7;;
64022;SDS011;50264;52.088;5.296;2023-04-03T10:15:11;2.9;;;0.9;;
64022;SDS011;50264;52.088;5.296;2023-04-03T10:16:51;0.6;;;0.6;;
64022;SDS011;50264;52.088;5.296;2023-04-03T10:18:37;1.4;;;0.7;;
64022;SDS011;50264;52.088;5.296;2023-04-03T10:22:13;0.7;;;0.7;;
64022;SDS011;50264;52.088;5.296;2023-04-03T10:23:57;2.31;;;0.9;;
64022;SDS011;50264;52.088;5.296;2023-04-03T10:25:46;0.6;;;0.6;;
64022;SDS011;50264;52.088;5.296;2023-04-03T10:27:35;2.5;;;0.7;;
64022;SDS011;50264;52.088;5.296;2023-04-03T10:29:22;0.9;;;0.7;;
64022;SDS011;50264;52.088;5.296;2023-04-03T10:31:14;1.11;;;0.6;;
64022;SDS011;50264;52.088;5.296;2023-04-03T10:34:53;2.4;;;0.8;;
64022;SDS011;50264;52.088;5.296;2023-04-03T10:36:38;2.6;;;0.6;;
64022;SDS011;50264;52.088;5.296;2023-04-03T10:38:23;3.0;;;0.9;;
64022;SDS011;50264;52.088;5.296;2023-04-03T10:40:15;1.2;;;0.6;;
64022;SDS011;50264;52.088;5.296;2023-04-03T10:42:05;1.5;;;0.9;;
64022;SDS011;50264;52.088;5.296;2023-04-03T10:43:53;1.2;;;0.8;;
64022;SDS011;50264;52.088;5.296;2023-04-03T10:45:47;0.7;;;0.6;;
64022;SDS011;50264;52.088;5.296;2023-04-03T10:49:24;2.21;;;0.6;;
64022;SDS011;50264;52.088;5.296;2023-04-03T10:51:13;0.9;;;0.7;;
64022;SDS011;50264;52.088;5.296;2023-04-03T10:53:01;0.7;;;0.6;;
64022;SDS011;50264;52.088;5.296;2023-04-03T10:54:45;1.0;;;0.7;;
64022;SDS011;50264;52.088;5.296;2023-04-03T10:56:31;1.0;;;0.7;;
64022;SDS011;50264;52.088;5.296;2023-04-03T10:58:16;1.0;;;0.7;;
64022;SDS011;50264;52.088;5.296;2023-04-03T11:01:41;1.3;;;0.8;;
64022;SDS011;50264;52.088;5.296;2023-04-03T11:03:24;1.0;;;0.6;;
64022;SDS011;50264;52.088;5.296;2023-04-03T11:06:55;1.5;;;0.7;;
64022;SDS011;50264;52.088;5.296;2023-04-03T11:10:21;2.21;;;0.8;;
64022;SDS011;50264;52.088;5.296;2023-04-03T11:12:02;1.6;;;0.8;;
64022;SDS011;50264;52.088;5.296;2023-04-03T11:13:49;1.7;;;0.7;;
64022;SDS011;50264;52.088;5.296;2023-04-03T11:15:30;1.6;;;1.0;;
64022;SDS011;50264;52.088;5.296;2023-04-03T11:17:11;1.6;;;0.8;;
64022;SDS011;50264;52.088;5.296;2023-04-03T11:20:47;3.2;;;0.9;;
64022;SDS011;50264;52.088;5.296;2023-04-03T11:22:37;1.0;;;0.7;;
64022;SDS011;50264;52.088;5.296;2023-04-03T11:24:20;1.5;;;0.8;;
64022;SDS011;50264;52.088;5.296;2023-04-03T11:26:04;2.31;;;0.9;;
64022;SDS011;50264;52.088;5.296;2023-04-03T11:31:22;1.7;;;0.9;;
64022;SDS011;50264;52.088;5.296;2023-04-03T11:33:13;0.8;;;0.8;;
64022;SDS011;50264;52.088;5.296;2023-04-03T11:35:12;1.7;;;1.0;;
64022;SDS011;50264;52.088;5.296;2023-04-03T11:36:51;3.6;;;1.0;;
64022;SDS011;50264;52.088;5.296;2023-04-03T11:38:31;2.6;;;1.0;;
64022;SDS011;50264;52.088;5.296;2023-04-03T11:40:19;3.4;;;0.9;;
64022;SDS011;50264;52.088;5.296;2023-04-03T11:44:05;1.8;;;0.9;;
64022;SDS011;50264;52.088;5.296;2023-04-03T11:46:09;2.1;;;1.0;;
64022;SDS011;50264;52.088;5.296;2023-04-03T11:47:47;1.7;;;1.2;;
64022;SDS011;50264;52.088;5.296;2023-04-03T11:49:59;2.4;;;1.3;;
64022;SDS011;50264;52.088;5.296;2023-04-03T11:51:39;1.6;;;0.9;;
64022;SDS011;50264;52.088;5.296;2023-04-03T11:55:51;3.2;;;1.2;;
64022;SDS011;50264;52.088;5.296;2023-04-03T11:58:12;1.5;;;1.0;;
64022;SDS011;50264;52.088;5.296;2023-04-03T11:59:51;3.9;;;1.0;;
64022;SDS011;50264;52.088;5.296;2023-04-03T12:01:43;2.31;;;1.0;;
64022;SDS011;50264;52.088;5.296;2023-04-03T12:04:22;2.6;;;1.0;;
64022;SDS011;50264;52.088;5.296;2023-04-03T12:06:41;1.6;;;1.11;;
64022;SDS011;50264;52.088;5.296;2023-04-03T12:08:46;3.1;;;1.0;;
64022;SDS011;50264;52.088;5.296;2023-04-03T12:10:26;2.8;;;1.11;;
64022;SDS011;50264;52.088;5.296;2023-04-03T12:12:21;1.5;;;1.0;;
64022;SDS011;50264;52.088;5.296;2023-04-03T12:14:04;3.6;;;1.2;;
64022;SDS011;50264;52.088;5.296;2023-04-03T12:15:51;1.8;;;1.2;;
64022;SDS011;50264;52.088;5.296;2023-04-03T12:19:24;2.8;;;1.0;;
64022;SDS011;50264;52.088;5.296;2023-04-03T12:21:10;4.2;;;1.11;;
64022;SDS011;50264;52.088;5.296;2023-04-03T12:23:06;3.8;;;0.9;;
64022;SDS011;50264;52.088;5.296;2023-04-03T12:24:43;1.8;;;1.2;;
64022;SDS011;50264;52.088;5.296;2023-04-03T12:26:22;1.8;;;1.0;;
64022;SDS011;50264;52.088;5.296;2023-04-03T12:29:43;5.5;;;1.2;;
64022;SDS011;50264;52.088;5.296;2023-04-03T12:31:31;1.11;;;0.8;;
64022;SDS011;50264;52.088;5.296;2023-04-03T12:33:23;3.0;;;1.4;;
64022;SDS011;50264;52.088;5.296;2023-04-03T12:35:16;2.9;;;0.9;;
64022;SDS011;50264;52.088;5.296;2023-04-03T12:37:01;2.6;;;1.0;;
64022;SDS011;50264;52.088;5.296;2023-04-03T12:38:49;1.6;;;1.11;;
64022;SDS011;50264;52.088;5.296;2023-04-03T12:42:32;3.3;;;1.2;;
64022;SDS011;50264;52.088;5.296;2023-04-03T12:44:31;3.2;;;1.11;;
64022;SDS011;50264;52.088;5.296;2023-04-03T12:46:17;2.31;;;1.0;;
64022;SDS011;50264;52.088;5.296;2023-04-03T12:47:55;2.7;;;1.3;;
64022;SDS011;50264;52.088;5.296;2023-04-03T12:49:35;4.41;;;1.0;;
64022;SDS011;50264;52.088;5.296;2023-04-03T12:51:14;2.31;;;1.2;;
64022;SDS011;50264;52.088;5.296;2023-04-03T12:54:36;1.8;;;1.2;;
64022;SDS011;50264;52.088;5.296;2023-04-03T12:56:18;1.8;;;1.2;;
64022;SDS011;50264;52.088;5.296;2023-04-03T12:57:57;4.61;;;1.3;;
64022;SDS011;50264;52.088;5.296;2023-04-03T12:59:49;5.0;;;1.2;;
64022;SDS011;50264;52.088;5.296;2023-04-03T13:03:02;2.21;;;1.11;;
64022;SDS011;50264;52.088;5.296;2023-04-03T13:04:40;1.7;;;1.2;;
64022;SDS011;50264;52.088;5.296;2023-04-03T13:06:17;1.6;;;1.11;;
64022;SDS011;50264;52.088;5.296;2023-04-03T13:07:58;2.0;;;1.2;;
64022;SDS011;50264;52.088;5.296;2023-04-03T13:11:13;2.1;;;1.2;;
64022;SDS011;50264;52.088;5.296;2023-04-03T13:12:50;2.5;;;1.2;;